Time;durP1;ratioP1;P1;durP2;ratioP2;P2;SDS_P1;SDS_P2;PMS_P1;PMS_P2;Temp;Humidity;BMP_temperature;BMP_pressure;BME280_temperature;BME280_humidity;BME280_pressure;Samples;Min_cycle;Max_cycle;Signal;HPM_P1;HPM_P2
2023/01/18 00:00:11;;;;;;;0.30;0.30;;;1.10;99.90;;;;;;5074636;28;20484;-84
2023/01/18 00:02:39;;;;;;;0.30;0.30;;;1.10;99.90;;;;;;5074581;28;20450;-84
2023/01/18 00:05:07;;;;;;;0.70;0.40;;;1.20;99.90;;;;;;5074778;28;20461;-84
2023/01/18 00:07:34;;;;;;;0.30;0.30;;;1.20;99.90;;;;;;5074555;28;20453;-84
2023/01/18 00:10:01;;;;;;;1.07;1.07;;;1.20;99.90;;;;;;5074831;28;20453;-83
2023/01/18 00:12:27;;;;;;;0.40;0.33;;;1.20;99.90;;;;;;5074699;28;20550;-84
2023/01/18 00:14:54;;;;;;;2.40;0.43;;;1.20;99.90;;;;;;5074241;28;20469;-83
2023/01/18 00:17:21;;;;;;;0.30;0.30;;;1.20;99.90;;;;;;5074693;28;20426;-83
2023/01/18 00:19:49;;;;;;;0.30;0.30;;;1.20;99.90;;;;;;5074457;28;20481;-83
2023/01/18 00:22:16;;;;;;;0.40;0.30;;;1.30;99.90;;;;;;5074370;28;20458;-83
2023/01/18 00:24:42;;;;;;;0.30;0.30;;;1.20;99.90;;;;;;5074306;28;20466;-83
2023/01/18 00:27:09;;;;;;;0.40;0.40;;;1.20;99.90;;;;;;5074345;28;20445;-83
2023/01/18 00:29:36;;;;;;;0.60;0.50;;;1.20;99.90;;;;;;5074039;28;20982;-83
2023/01/18 00:32:03;;;;;;;0.30;0.30;;;1.30;99.90;;;;;;5073976;28;20449;-84
2023/01/18 00:34:31;;;;;;;1.93;0.73;;;1.30;99.90;;;;;;5073967;28;20477;-84
2023/01/18 00:36:59;;;;;;;0.50;0.50;;;1.30;99.90;;;;;;5074167;28;20446;-84
2023/01/18 00:39:25;;;;;;;0.50;0.50;;;1.30;99.90;;;;;;5074024;28;20488;-84
2023/01/18 00:44:42;;;;;;;0.30;0.30;;;1.30;99.90;;;;;;5035358;28;21109;-84
2023/01/18 00:47:09;;;;;;;0.30;0.30;;;1.30;99.90;;;;;;5073846;28;20961;-84
2023/01/18 00:49:35;;;;;;;0.30;0.30;;;1.30;99.90;;;;;;5073931;28;20441;-84
2023/01/18 00:52:04;;;;;;;0.60;0.40;;;1.30;99.90;;;;;;5073655;28;20952;-83
2023/01/18 00:54:31;;;;;;;0.37;0.37;;;1.30;99.90;;;;;;5073851;28;20466;-83
2023/01/18 00:56:58;;;;;;;0.97;0.43;;;1.20;99.90;;;;;;5073823;28;20449;-84
2023/01/18 00:59:25;;;;;;;0.40;0.30;;;1.20;99.90;;;;;;5073745;28;20492;-83
2023/01/18 01:01:51;;;;;;;0.30;0.20;;;1.30;99.90;;;;;;5072783;28;20442;-83
2023/01/18 01:07:04;;;;;;;0.30;0.30;;;1.30;99.90;;;;;;5073500;28;20486;-83
2023/01/18 01:09:31;;;;;;;0.53;0.53;;;1.30;99.90;;;;;;5073372;28;20817;-83
2023/01/18 01:26:06;;;;;;;0.87;0.87;;;1.30;99.90;;;;;;5073238;28;20814;-83
2023/01/18 01:28:33;;;;;;;2.60;1.13;;;1.30;99.90;;;;;;5073492;28;20870;-82
2023/01/18 01:31:02;;;;;;;0.40;0.40;;;1.30;99.90;;;;;;5073389;28;20441;-83
2023/01/18 01:33:29;;;;;;;0.40;0.33;;;1.30;99.90;;;;;;5073404;28;20447;-83
2023/01/18 01:35:57;;;;;;;0.40;0.30;;;1.20;99.90;;;;;;5073277;28;20481;-83
2023/01/18 01:38:25;;;;;;;0.53;0.50;;;1.20;99.90;;;;;;5073008;28;20441;-83
2023/01/18 01:40:56;;;;;;;0.40;0.30;;;1.20;99.90;;;;;;5073257;28;20445;-83
2023/01/18 01:43:41;;;;;;;0.30;0.20;;;1.20;99.90;;;;;;5073241;28;20453;-83
2023/01/18 01:46:34;;;;;;;0.30;0.30;;;1.30;99.90;;;;;;5072912;28;20976;-83
2023/01/18 01:49:07;;;;;;;0.43;0.43;;;1.30;99.90;;;;;;5068036;28;20460;-83
2023/01/18 01:51:35;;;;;;;0.30;0.30;;;1.30;99.90;;;;;;5072985;28;20430;-83
2023/01/18 01:54:12;;;;;;;0.30;0.20;;;1.30;99.90;;;;;;5073134;28;20827;-83
2023/01/18 01:56:39;;;;;;;0.87;0.40;;;1.20;99.90;;;;;;5073281;28;20441;-83
2023/01/18 01:59:08;;;;;;;0.70;0.70;;;1.30;99.90;;;;;;5073103;28;20485;-83
2023/01/18 02:01:36;;;;;;;0.40;0.40;;;1.30;99.90;;;;;;5073022;28;20507;-83
2023/01/18 02:04:03;;;;;;;0.60;0.40;;;1.30;99.90;;;;;;5073073;28;20460;-83
2023/01/18 02:06:34;;;;;;;0.50;0.50;;;1.30;99.90;;;;;;5072756;28;20468;-83
2023/01/18 02:09:04;;;;;;;0.87;0.87;;;1.30;99.90;;;;;;5073106;28;20797;-83
2023/01/18 02:11:31;;;;;;;0.93;0.60;;;1.30;99.90;;;;;;5072669;28;20456;-83
2023/01/18 02:14:00;;;;;;;2.10;1.30;;;1.30;99.90;;;;;;5075147;28;20445;-83
2023/01/18 02:16:40;;;;;;;0.60;0.60;;;1.30;99.90;;;;;;5076355;28;20493;-83
2023/01/18 02:19:24;;;;;;;0.47;0.30;;;1.30;99.90;;;;;;5076782;28;21003;-83
2023/01/18 02:21:56;;;;;;;0.30;0.30;;;1.30;99.90;;;;;;5076534;28;20410;-83
2023/01/18 02:24:51;;;;;;;0.70;0.70;;;1.30;99.90;;;;;;5076729;28;20429;-83
2023/01/18 02:27:23;;;;;;;0.30;0.30;;;1.30;99.90;;;;;;5076316;28;20921;-83
2023/01/18 02:30:17;;;;;;;0.30;0.27;;;1.20;99.90;;;;;;5076643;28;20433;-83
2023/01/18 02:33:04;;;;;;;0.53;0.40;;;1.20;99.90;;;;;;5076598;28;20433;-83
2023/01/18 02:35:40;;;;;;;0.30;0.30;;;1.20;99.90;;;;;;5076535;28;20468;-83
2023/01/18 02:38:12;;;;;;;0.83;0.73;;;1.20;99.90;;;;;;5076497;28;20441;-83
2023/01/18 02:40:49;;;;;;;0.30;0.30;;;1.20;99.90;;;;;;5076367;28;20469;-83
2023/01/18 02:46:32;;;;;;;0.47;0.47;;;1.20;99.90;;;;;;5076211;28;20445;-83
2023/01/18 02:49:02;;;;;;;1.70;0.83;;;1.20;99.90;;;;;;5076317;28;20438;-83
2023/01/18 02:51:28;;;;;;;0.30;0.30;;;1.20;99.90;;;;;;5076158;28;20445;-83
2023/01/18 02:53:56;;;;;;;0.60;0.60;;;1.20;99.90;;;;;;5076075;28;20808;-83
2023/01/18 02:56:28;;;;;;;0.30;0.30;;;1.20;99.90;;;;;;5075714;28;20469;-83
2023/01/18 02:58:59;;;;;;;0.87;0.50;;;1.20;99.90;;;;;;5076013;28;20461;-83
2023/01/18 03:01:32;;;;;;;0.57;0.57;;;1.20;99.90;;;;;;5076574;28;20471;-83
2023/01/18 03:04:05;;;;;;;0.33;0.33;;;1.20;99.90;;;;;;5076035;28;20441;-83
2023/01/18 03:06:33;;;;;;;0.40;0.40;;;1.20;99.90;;;;;;5076441;28;20470;-83
2023/01/18 03:09:01;;;;;;;0.30;0.30;;;1.20;99.90;;;;;;5075878;28;20941;-83
2023/01/18 03:11:37;;;;;;;0.30;0.30;;;1.30;99.90;;;;;;5075594;28;20941;-83
2023/01/18 03:14:15;;;;;;;1.83;0.50;;;1.30;99.90;;;;;;5075848;28;20456;-83
2023/01/18 03:16:58;;;;;;;0.40;0.40;;;1.30;99.90;;;;;;5075283;28;20477;-83
2023/01/18 03:23:36;;;;;;;0.40;0.40;;;1.20;99.90;;;;;;5075652;28;20757;-84
2023/01/18 03:25:16;;;;;;;0.30;0.30;;;1.20;99.90;;;;;;5074186;28;20466;-83
2023/01/18 03:36:09;;;;;;;0.30;0.20;;;1.10;99.90;;;;;;5075358;28;20457;-83
2023/01/18 03:38:38;;;;;;;3.90;1.07;;;1.10;99.90;;;;;;5074982;28;20921;-83
2023/01/18 03:41:08;;;;;;;0.30;0.20;;;1.10;99.90;;;;;;5074905;28;20996;-83
2023/01/18 03:43:36;;;;;;;0.30;0.30;;;1.10;99.90;;;;;;5075226;28;20445;-83
2023/01/18 03:46:04;;;;;;;0.30;0.20;;;1.10;99.90;;;;;;5075054;28;20481;-83
2023/01/18 03:48:33;;;;;;;1.57;0.93;;;1.10;99.90;;;;;;5074763;28;20936;-83
2023/01/18 03:51:07;;;;;;;0.73;0.73;;;1.10;99.90;;;;;;5074988;28;20442;-83
2023/01/18 03:53:38;;;;;;;1.23;0.60;;;1.10;99.90;;;;;;5075019;28;20839;-83
2023/01/18 03:56:09;;;;;;;0.30;0.30;;;1.20;99.90;;;;;;5074903;28;20465;-83
2023/01/18 03:58:37;;;;;;;1.23;1.13;;;1.20;99.90;;;;;;5074916;28;20433;-83
2023/01/18 04:01:04;;;;;;;0.60;0.60;;;1.20;99.90;;;;;;5074757;28;20488;-83
2023/01/18 04:03:33;;;;;;;1.00;0.43;;;1.20;99.90;;;;;;5074851;28;20457;-83
2023/01/18 04:06:02;;;;;;;2.10;0.60;;;1.20;99.90;;;;;;5074653;28;20472;-83
2023/01/18 04:08:29;;;;;;;2.20;1.33;;;1.20;99.90;;;;;;5074397;28;20951;-83
2023/01/18 04:10:55;;;;;;;0.30;0.30;;;1.20;99.90;;;;;;5074615;28;20441;-83
2023/01/18 04:13:22;;;;;;;0.30;0.20;;;1.20;99.90;;;;;;5074259;28;20968;-83
2023/01/18 04:15:49;;;;;;;0.30;0.30;;;1.10;99.90;;;;;;5074124;28;20485;-83
2023/01/18 04:18:16;;;;;;;0.43;0.43;;;1.10;99.90;;;;;;5074990;28;20578;-83
2023/01/18 04:20:44;;;;;;;0.40;0.40;;;1.10;99.90;;;;;;5074556;28;20995;-83
2023/01/18 04:23:10;;;;;;;0.73;0.43;;;1.20;99.90;;;;;;5074459;28;20442;-83
2023/01/18 04:25:39;;;;;;;0.60;0.30;;;1.20;99.90;;;;;;5074303;28;20473;-83
2023/01/18 04:28:06;;;;;;;0.37;0.37;;;1.10;99.90;;;;;;5075167;28;20510;-83
2023/01/18 04:30:33;;;;;;;4.13;0.70;;;1.10;99.90;;;;;;5073950;28;20446;-83
2023/01/18 04:32:59;;;;;;;0.30;0.30;;;1.10;99.90;;;;;;5074185;28;20449;-84
2023/01/18 04:35:26;;;;;;;0.30;0.20;;;1.20;99.90;;;;;;5074031;28;20485;-83
2023/01/18 04:37:54;;;;;;;0.40;0.40;;;1.20;99.90;;;;;;5074124;28;20430;-83
2023/01/18 04:40:21;;;;;;;0.30;0.30;;;1.20;99.90;;;;;;5074007;28;20521;-83
2023/01/18 04:42:52;;;;;;;0.30;0.30;;;1.20;99.90;;;;;;5073792;28;20975;-83
2023/01/18 04:45:19;;;;;;;1.23;0.90;;;1.10;99.90;;;;;;5073929;28;20514;-83
2023/01/18 04:47:46;;;;;;;0.30;0.30;;;1.20;99.90;;;;;;5073872;28;20450;-83
2023/01/18 04:50:13;;;;;;;0.30;0.20;;;1.20;99.90;;;;;;5073852;28;20449;-83
2023/01/18 04:52:40;;;;;;;0.30;0.30;;;1.10;99.90;;;;;;5073789;28;20460;-83
2023/01/18 04:55:14;;;;;;;0.30;0.30;;;1.10;99.90;;;;;;5073700;28;20560;-83
2023/01/18 04:57:41;;;;;;;0.40;0.30;;;1.10;99.90;;;;;;5073863;28;20529;-83
2023/01/18 05:00:10;;;;;;;0.30;0.20;;;1.10;99.90;;;;;;5073631;28;20481;-83
2023/01/18 05:02:38;;;;;;;0.40;0.40;;;1.00;99.90;;;;;;5073693;28;20450;-83
2023/01/18 05:05:06;;;;;;;0.30;0.20;;;1.00;99.90;;;;;;5073580;28;20469;-83
2023/01/18 05:07:33;;;;;;;0.30;0.20;;;0.90;99.90;;;;;;5073328;28;20825;-83
2023/01/18 05:10:00;;;;;;;0.40;0.30;;;0.90;99.90;;;;;;5073609;28;20495;-82
2023/01/18 05:12:28;;;;;;;0.77;0.63;;;0.90;99.90;;;;;;5073570;28;20967;-82
2023/01/18 05:14:55;;;;;;;1.17;1.07;;;0.80;99.90;;;;;;5072935;28;20479;-83
2023/01/18 05:17:26;;;;;;;0.30;0.20;;;0.80;99.90;;;;;;5073216;28;20901;-82
2023/01/18 05:19:53;;;;;;;0.67;0.30;;;0.80;99.90;;;;;;5073461;28;20473;-82
2023/01/18 05:22:21;;;;;;;0.30;0.30;;;0.80;99.90;;;;;;5073466;28;20651;-82
2023/01/18 05:24:48;;;;;;;0.30;0.27;;;0.80;99.90;;;;;;5073334;28;20469;-82
2023/01/18 05:27:15;;;;;;;1.13;0.70;;;0.80;99.90;;;;;;5073383;28;20449;-82
2023/01/18 05:29:43;;;;;;;1.73;0.50;;;0.80;99.90;;;;;;5073297;28;20452;-82
2023/01/18 05:32:10;;;;;;;0.40;0.40;;;0.70;99.90;;;;;;5073106;28;20805;-82
2023/01/18 05:34:37;;;;;;;0.30;0.30;;;0.70;99.90;;;;;;5072942;28;20470;-82
2023/01/18 05:37:04;;;;;;;0.30;0.20;;;0.70;99.90;;;;;;5073269;28;20477;-82
2023/01/18 05:39:31;;;;;;;0.40;0.40;;;0.70;99.90;;;;;;5073241;28;20518;-82
2023/01/18 05:41:57;;;;;;;0.30;0.20;;;0.70;99.90;;;;;;5073170;28;20481;-82
2023/01/18 05:44:24;;;;;;;0.40;0.40;;;0.70;99.90;;;;;;5073149;28;20453;-82
2023/01/18 05:46:52;;;;;;;0.40;0.40;;;0.70;99.90;;;;;;5073187;28;20460;-82
2023/01/18 05:49:19;;;;;;;0.30;0.30;;;0.70;99.90;;;;;;5075702;28;20457;-82
2023/01/18 05:51:46;;;;;;;0.30;0.30;;;0.70;99.90;;;;;;5077288;28;20460;-82
2023/01/18 05:54:12;;;;;;;0.30;0.30;;;0.70;99.90;;;;;;5077122;28;20441;-82
2023/01/18 05:56:40;;;;;;;0.30;0.30;;;0.70;99.90;;;;;;5076888;28;20824;-81
2023/01/18 05:59:07;;;;;;;0.30;0.30;;;0.70;99.90;;;;;;5076827;28;20461;-81
2023/01/18 06:01:34;;;;;;;0.33;0.30;;;0.70;99.90;;;;;;5076719;28;20487;-81
2023/01/18 06:04:02;;;;;;;0.30;0.20;;;0.70;99.90;;;;;;5076757;28;20442;-81
2023/01/18 06:06:29;;;;;;;0.30;0.20;;;0.70;99.90;;;;;;5076683;28;20445;-81
2023/01/18 06:08:56;;;;;;;0.50;0.50;;;0.70;99.90;;;;;;5076920;28;20511;-81
2023/01/18 06:11:22;;;;;;;0.30;0.30;;;0.70;99.90;;;;;;5077718;28;20444;-81
2023/01/18 06:13:50;;;;;;;0.40;0.30;;;0.60;99.90;;;;;;5076851;28;20452;-81
2023/01/18 06:16:16;;;;;;;0.30;0.20;;;0.60;99.90;;;;;;5076511;28;20481;-81
2023/01/18 06:18:43;;;;;;;0.30;0.30;;;0.60;99.90;;;;;;5076705;28;20445;-81
2023/01/18 06:21:12;;;;;;;0.40;0.40;;;0.60;99.90;;;;;;5076587;28;20568;-81
2023/01/18 06:23:38;;;;;;;0.40;0.30;;;0.60;99.90;;;;;;5076266;28;20972;-81
2023/01/18 06:26:05;;;;;;;0.40;0.40;;;0.60;99.90;;;;;;5076264;28;20840;-81
2023/01/18 06:28:32;;;;;;;0.30;0.30;;;0.60;99.90;;;;;;5076561;28;20456;-81
2023/01/18 06:31:02;;;;;;;0.30;0.27;;;0.70;99.90;;;;;;5076508;28;20795;-81
2023/01/18 06:33:28;;;;;;;0.30;0.30;;;0.60;99.90;;;;;;5076117;28;20449;-81
2023/01/18 06:35:55;;;;;;;0.60;0.60;;;0.60;99.90;;;;;;5076355;28;20457;-81
2023/01/18 06:38:23;;;;;;;0.30;0.20;;;0.60;99.90;;;;;;5076666;28;20449;-81
2023/01/18 06:40:50;;;;;;;0.67;0.33;;;0.60;99.90;;;;;;5075949;28;20476;-81
2023/01/18 06:43:17;;;;;;;0.30;0.30;;;0.60;99.90;;;;;;5076294;28;20457;-80
2023/01/18 06:45:44;;;;;;;0.30;0.30;;;0.60;99.90;;;;;;5075936;28;21090;-80
2023/01/18 06:48:11;;;;;;;1.73;1.00;;;0.60;99.90;;;;;;5076151;28;20484;-80
2023/01/18 06:50:38;;;;;;;0.53;0.53;;;0.60;99.90;;;;;;5076693;28;20446;-80
2023/01/18 06:53:05;;;;;;;0.60;0.60;;;0.60;99.90;;;;;;5076148;28;20532;-80
2023/01/18 06:55:33;;;;;;;0.30;0.30;;;0.60;99.90;;;;;;5075697;28;20476;-81
2023/01/18 06:58:01;;;;;;;0.30;0.30;;;0.60;99.90;;;;;;5075715;28;21006;-80
2023/01/18 07:00:28;;;;;;;0.80;0.63;;;0.60;99.90;;;;;;5074698;28;20473;-80
2023/01/18 07:02:56;;;;;;;0.30;0.20;;;0.60;99.90;;;;;;5075983;28;20464;-81
2023/01/18 07:05:22;;;;;;;0.70;0.70;;;0.60;99.90;;;;;;5075777;28;20467;-80
2023/01/18 07:07:49;;;;;;;0.30;0.30;;;0.60;99.90;;;;;;5075827;28;20449;-80
2023/01/18 07:10:17;;;;;;;0.30;0.30;;;0.50;99.90;;;;;;5075627;28;20457;-80
2023/01/18 07:12:47;;;;;;;0.30;0.20;;;0.50;99.90;;;;;;5076075;28;20442;-80
2023/01/18 07:15:16;;;;;;;1.33;0.40;;;0.50;99.90;;;;;;5075490;28;20837;-81
2023/01/18 07:17:43;;;;;;;0.30;0.30;;;0.50;99.90;;;;;;5075714;28;20859;-80
2023/01/18 07:20:13;;;;;;;0.40;0.40;;;0.50;99.90;;;;;;5075659;28;20454;-81
2023/01/18 07:22:40;;;;;;;0.33;0.33;;;0.40;99.90;;;;;;5075558;28;20442;-79
2023/01/18 07:25:07;;;;;;;0.40;0.40;;;0.50;99.90;;;;;;5075436;28;20476;-80
2023/01/18 07:27:34;;;;;;;0.30;0.30;;;0.50;99.90;;;;;;5075491;28;20445;-80
2023/01/18 07:30:02;;;;;;;1.13;0.30;;;0.40;99.90;;;;;;5075401;28;20445;-80
2023/01/18 07:32:29;;;;;;;0.30;0.30;;;0.50;99.90;;;;;;5075084;28;20814;-80
2023/01/18 07:34:55;;;;;;;0.30;0.20;;;0.50;99.90;;;;;;5075256;28;20470;-80
2023/01/18 07:37:22;;;;;;;0.70;0.70;;;0.50;99.90;;;;;;5075024;28;20937;-81
2023/01/18 07:39:50;;;;;;;0.40;0.30;;;0.50;99.90;;;;;;5075242;28;20445;-81
2023/01/18 07:42:18;;;;;;;0.30;0.30;;;0.50;99.90;;;;;;5074756;28;20481;-81
2023/01/18 07:44:44;;;;;;;0.40;0.40;;;0.50;99.90;;;;;;5074743;28;20850;-81
2023/01/18 07:47:12;;;;;;;0.33;0.33;;;0.50;99.90;;;;;;5075335;28;20452;-81
2023/01/18 07:49:40;;;;;;;0.40;0.40;;;0.50;99.90;;;;;;5074868;28;20457;-86
2023/01/18 07:52:06;;;;;;;0.30;0.30;;;0.50;99.90;;;;;;5075597;28;20448;-87
2023/01/18 07:54:33;;;;;;;0.30;0.30;;;0.60;99.90;;;;;;5075422;28;20561;-81
2023/01/18 07:57:00;;;;;;;0.30;0.30;;;0.60;99.90;;;;;;5075061;28;20805;-83
2023/01/18 07:59:27;;;;;;;0.40;0.30;;;0.60;99.90;;;;;;5075248;28;20460;-86
2023/01/18 08:01:54;;;;;;;0.30;0.30;;;0.60;99.90;;;;;;5075474;28;20477;-86
2023/01/18 08:04:23;;;;;;;0.30;0.30;;;0.60;99.90;;;;;;5075053;28;20456;-86
2023/01/18 08:06:50;;;;;;;0.30;0.20;;;0.60;99.90;;;;;;5075016;28;20475;-86
2023/01/18 08:09:17;;;;;;;0.40;0.30;;;0.60;99.90;;;;;;5074969;28;20519;-86
2023/01/18 08:11:44;;;;;;;0.30;0.30;;;0.60;99.90;;;;;;5074679;28;20453;-87
2023/01/18 08:14:11;;;;;;;0.30;0.30;;;0.70;99.90;;;;;;5074921;28;20469;-87
2023/01/18 08:16:37;;;;;;;0.30;0.20;;;0.60;99.90;;;;;;5074565;28;20517;-86
2023/01/18 08:19:04;;;;;;;0.30;0.30;;;0.60;99.90;;;;;;5075061;28;20434;-86
2023/01/18 08:21:32;;;;;;;0.30;0.30;;;0.70;99.90;;;;;;5074826;28;20489;-86
2023/01/18 08:23:59;;;;;;;0.60;0.60;;;0.60;99.90;;;;;;5074452;28;20445;-87
2023/01/18 08:26:26;;;;;;;0.30;0.30;;;0.60;99.90;;;;;;5074736;28;20825;-87
2023/01/18 08:28:52;;;;;;;0.40;0.40;;;0.60;99.90;;;;;;5074585;28;20448;-87
2023/01/18 08:31:21;;;;;;;0.30;0.30;;;0.60;99.90;;;;;;5074931;28;20453;-87
2023/01/18 08:33:48;;;;;;;0.40;0.40;;;0.60;99.90;;;;;;5074587;28;20449;-87
2023/01/18 08:36:17;;;;;;;0.30;0.30;;;0.60;99.90;;;;;;5074544;28;20474;-87
2023/01/18 08:38:48;;;;;;;0.30;0.30;;;0.60;99.90;;;;;;5074208;28;20450;-87
2023/01/18 08:41:14;;;;;;;0.53;0.53;;;0.60;99.90;;;;;;5074362;28;20895;-87
2023/01/18 08:43:41;;;;;;;0.87;0.87;;;0.70;99.90;;;;;;5073919;28;20476;-87
2023/01/18 08:46:08;;;;;;;0.30;0.20;;;0.70;99.90;;;;;;5074936;28;20465;-86
2023/01/18 08:48:35;;;;;;;0.30;0.30;;;0.70;99.90;;;;;;5074705;28;20933;-87
2023/01/18 08:51:02;;;;;;;0.30;0.20;;;0.70;99.90;;;;;;5074585;28;20445;-87
2023/01/18 08:53:29;;;;;;;0.30;0.30;;;0.70;99.90;;;;;;5074710;28;20453;-86
2023/01/18 08:55:57;;;;;;;0.30;0.30;;;0.70;99.90;;;;;;5074297;28;20496;-86
2023/01/18 08:58:24;;;;;;;0.30;0.30;;;0.70;99.90;;;;;;5074312;28;20449;-86
2023/01/18 09:00:52;;;;;;;0.40;0.40;;;0.70;99.90;;;;;;5075383;28;20822;-86
2023/01/18 09:03:20;;;;;;;0.30;0.30;;;0.80;99.90;;;;;;5075749;28;21000;-86
2023/01/18 09:05:48;;;;;;;0.30;0.30;;;0.80;99.90;;;;;;5076080;28;20461;-87
2023/01/18 09:08:14;;;;;;;0.40;0.40;;;0.80;99.90;;;;;;5075740;28;20856;-87
2023/01/18 09:10:41;;;;;;;0.40;0.40;;;0.70;99.90;;;;;;5075917;28;20442;-87
2023/01/18 09:13:10;;;;;;;0.30;0.30;;;0.80;99.90;;;;;;5074793;28;20452;-87
2023/01/18 09:15:37;;;;;;;0.50;0.40;;;0.80;99.90;;;;;;5075218;28;20481;-85
2023/01/18 09:18:05;;;;;;;0.50;0.43;;;0.90;99.90;;;;;;5073753;28;20449;-86
2023/01/18 09:20:32;;;;;;;0.43;0.43;;;0.80;99.90;;;;;;5074699;28;20540;-87
2023/01/18 09:22:59;;;;;;;0.33;0.33;;;0.80;99.90;;;;;;5074042;28;21008;-87
2023/01/18 09:25:26;;;;;;;0.30;0.30;;;0.80;99.90;;;;;;5074751;28;20469;-87
2023/01/18 09:27:52;;;;;;;0.37;0.37;;;0.90;99.90;;;;;;5074816;28;20786;-87
2023/01/18 09:30:21;;;;;;;0.43;0.43;;;1.00;99.90;;;;;;5074479;28;20450;-83
2023/01/18 09:32:47;;;;;;;0.40;0.40;;;1.00;99.90;;;;;;5073091;28;20460;-83
2023/01/18 09:35:16;;;;;;;0.30;0.30;;;1.10;99.90;;;;;;5073258;28;20465;-83
2023/01/18 09:37:43;;;;;;;0.30;0.30;;;1.20;99.90;;;;;;5073294;28;20458;-83
2023/01/18 09:40:16;;;;;;;0.57;0.57;;;1.20;99.90;;;;;;5072955;28;20453;-83
2023/01/18 09:42:44;;;;;;;0.40;0.40;;;1.30;99.90;;;;;;5072946;28;20465;-83
2023/01/18 09:45:23;;;;;;;0.30;0.30;;;1.40;99.90;;;;;;5072935;28;20503;-84
2023/01/18 09:47:55;;;;;;;0.30;0.30;;;1.30;99.90;;;;;;5073662;28;20434;-82
2023/01/18 09:50:23;;;;;;;0.40;0.40;;;1.30;99.90;;;;;;5075293;28;20464;-83
2023/01/18 09:52:58;;;;;;;0.30;0.30;;;1.30;99.90;;;;;;5073904;28;20442;-82
2023/01/18 09:55:33;;;;;;;3.33;0.83;;;1.40;99.90;;;;;;5072760;28;20836;-82
2023/01/18 09:58:20;;;;;;;0.50;0.40;;;1.30;99.90;;;;;;5073757;28;20900;-82
2023/01/18 10:00:49;;;;;;;0.30;0.30;;;1.40;99.90;;;;;;5072833;28;20906;-83
2023/01/18 10:03:21;;;;;;;0.30;0.30;;;1.40;99.90;;;;;;5073275;28;20478;-83
2023/01/18 10:06:07;;;;;;;0.77;0.77;;;1.40;99.90;;;;;;5072975;28;20484;-83
2023/01/18 10:08:36;;;;;;;0.40;0.40;;;1.40;99.90;;;;;;5073026;28;20442;-83
2023/01/18 10:11:09;;;;;;;0.30;0.30;;;1.40;99.90;;;;;;5072555;28;20956;-82
2023/01/18 10:13:46;;;;;;;0.40;0.40;;;1.40;99.90;;;;;;5072996;28;20433;-83
2023/01/18 10:16:15;;;;;;;0.37;0.37;;;1.30;99.90;;;;;;5072617;28;20988;-82
2023/01/18 10:18:45;;;;;;;0.30;0.30;;;1.30;99.90;;;;;;5072872;28;20445;-83
2023/01/18 10:21:20;;;;;;;0.40;0.37;;;1.30;99.90;;;;;;5072878;28;20882;-83
2023/01/18 10:23:56;;;;;;;0.30;0.20;;;1.30;99.90;;;;;;5073097;28;20429;-83
2023/01/18 10:26:29;;;;;;;0.30;0.30;;;1.30;99.90;;;;;;5072650;28;20477;-83
2023/01/18 10:29:03;;;;;;;0.67;0.67;;;1.30;99.90;;;;;;5072588;28;20901;-83
2023/01/18 10:31:40;;;;;;;0.47;0.47;;;1.30;99.90;;;;;;5072800;28;20551;-82
2023/01/18 10:34:14;;;;;;;0.90;0.90;;;1.30;99.90;;;;;;5073515;28;20441;-82
2023/01/18 10:36:44;;;;;;;0.50;0.50;;;1.40;99.90;;;;;;5076110;28;20437;-82
2023/01/18 10:39:30;;;;;;;0.50;0.50;;;1.50;99.90;;;;;;5076393;28;20430;-82
2023/01/18 10:42:00;;;;;;;0.43;0.43;;;1.60;99.90;;;;;;5076312;28;20539;-82
2023/01/18 10:44:28;;;;;;;0.40;0.33;;;1.60;99.90;;;;;;5076468;28;20437;-81
2023/01/18 10:46:57;;;;;;;0.40;0.40;;;1.60;99.90;;;;;;5076258;28;20441;-82
2023/01/18 10:49:43;;;;;;;0.70;0.70;;;1.70;99.90;;;;;;5075981;28;20452;-82
2023/01/18 10:52:26;;;;;;;0.40;0.33;;;1.70;99.90;;;;;;5075848;28;20920;-82
2023/01/18 10:54:56;;;;;;;0.50;0.50;;;1.70;99.90;;;;;;5075994;28;20515;-82
2023/01/18 10:57:28;;;;;;;0.30;0.30;;;1.70;99.90;;;;;;5076107;28;20456;-85
2023/01/18 10:59:55;;;;;;;0.30;0.30;;;1.60;99.90;;;;;;5076249;28;20925;-85
2023/01/18 11:02:28;;;;;;;0.30;0.30;;;1.60;99.90;;;;;;5075956;28;20485;-85
2023/01/18 11:04:59;;;;;;;0.30;0.30;;;1.60;99.90;;;;;;5076451;28;20500;-85
2023/01/18 11:07:27;;;;;;;0.40;0.40;;;1.60;99.90;;;;;;5076147;28;20434;-85
2023/01/18 11:09:58;;;;;;;0.30;0.30;;;1.50;99.90;;;;;;5076067;28;20449;-84
2023/01/18 11:12:36;;;;;;;1.47;0.53;;;1.50;99.90;;;;;;5075880;28;20514;-85
2023/01/18 11:15:28;;;;;;;0.50;0.40;;;1.60;99.90;;;;;;5078936;28;20469;-85
2023/01/18 11:18:10;;;;;;;0.30;0.30;;;1.70;99.90;;;;;;5069732;28;20488;-85
2023/01/18 11:20:45;;;;;;;1.90;0.80;;;1.70;99.90;;;;;;5075833;28;20906;-85
2023/01/18 11:23:19;;;;;;;0.70;0.60;;;1.80;99.90;;;;;;5075636;28;20967;-85
2023/01/18 11:25:54;;;;;;;0.40;0.40;;;1.80;99.90;;;;;;5076024;28;20500;-85
2023/01/18 11:28:23;;;;;;;0.30;0.30;;;1.80;99.90;;;;;;5076424;28;20784;-85
2023/01/18 11:30:54;;;;;;;0.57;0.57;;;1.80;99.90;;;;;;5076009;28;20820;-85
2023/01/18 11:33:24;;;;;;;0.30;0.20;;;1.80;99.90;;;;;;5075615;28;20963;-85
2023/01/18 11:35:56;;;;;;;0.30;0.30;;;1.80;99.90;;;;;;5075603;28;20469;-85
2023/01/18 11:38:28;;;;;;;0.40;0.30;;;1.80;99.90;;;;;;5075680;28;20449;-85
2023/01/18 11:41:15;;;;;;;0.40;0.40;;;1.80;99.90;;;;;;5075669;28;20426;-84
2023/01/18 11:43:53;;;;;;;1.53;0.80;;;1.80;99.90;;;;;;5079005;28;20817;-85
2023/01/18 11:46:32;;;;;;;1.50;0.47;;;1.80;99.90;;;;;;5074948;28;20473;-85
2023/01/18 11:49:11;;;;;;;0.30;0.30;;;1.80;99.90;;;;;;5075252;28;20927;-85
2023/01/18 11:51:45;;;;;;;0.30;0.20;;;1.90;99.90;;;;;;5075310;28;20434;-85
2023/01/18 11:54:21;;;;;;;0.30;0.30;;;1.90;99.90;;;;;;5075365;28;20429;-81
2023/01/18 11:56:50;;;;;;;5.10;1.10;;;1.90;99.90;;;;;;5075333;28;20429;-84
2023/01/18 11:59:25;;;;;;;0.30;0.30;;;1.90;99.90;;;;;;5075378;28;20417;-86
2023/01/18 12:02:25;;;;;;;0.50;0.50;;;1.90;99.90;;;;;;5074909;28;20909;-85
2023/01/18 12:05:21;;;;;;;0.50;0.50;;;1.90;99.90;;;;;;5075216;28;20480;-85
2023/01/18 12:07:57;;;;;;;0.40;0.30;;;1.90;99.90;;;;;;5074665;28;20960;-85
2023/01/18 12:10:26;;;;;;;0.30;0.30;;;1.90;99.90;;;;;;5075734;28;20426;-84
2023/01/18 12:13:09;;;;;;;0.60;0.60;;;2.00;99.90;;;;;;5074365;28;20959;-81
2023/01/18 12:15:56;;;;;;;1.80;0.87;;;2.00;99.90;;;;;;5074100;28;21093;-81
2023/01/18 12:18:47;;;;;;;0.30;0.20;;;2.00;99.90;;;;;;5074255;28;20457;-81
2023/01/18 12:21:21;;;;;;;0.40;0.40;;;2.10;99.90;;;;;;5074486;28;20454;-80
2023/01/18 12:24:01;;;;;;;0.50;0.47;;;2.10;99.90;;;;;;5074045;28;20469;-80
2023/01/18 12:26:45;;;;;;;0.30;0.30;;;2.10;99.90;;;;;;5074298;28;20469;-80
2023/01/18 12:29:41;;;;;;;0.40;0.37;;;2.00;99.90;;;;;;5074319;28;20442;-80
2023/01/18 12:32:30;;;;;;;0.30;0.30;;;2.10;99.90;;;;;;5074294;28;20429;-80
2023/01/18 12:35:09;;;;;;;2.37;0.90;;;2.10;99.90;;;;;;5074144;28;20465;-80
2023/01/18 12:37:45;;;;;;;0.30;0.27;;;1.90;99.90;;;;;;5073918;28;20477;-80
2023/01/18 12:40:31;;;;;;;0.40;0.30;;;2.00;99.90;;;;;;5074840;28;20442;-80
2023/01/18 12:43:06;;;;;;;1.63;0.70;;;2.00;99.90;;;;;;5074825;28;20811;-80
2023/01/18 12:45:37;;;;;;;0.30;0.30;;;2.10;99.90;;;;;;5074164;28;20461;-80
2023/01/18 12:48:14;;;;;;;0.57;0.57;;;2.20;99.90;;;;;;5073969;28;20519;-80
2023/01/18 12:50:43;;;;;;;0.30;0.30;;;2.30;99.90;;;;;;5073908;28;20434;-80
2023/01/18 12:53:15;;;;;;;0.30;0.30;;;2.20;99.90;;;;;;5073761;28;20454;-80
2023/01/18 12:55:47;;;;;;;1.27;0.60;;;2.30;99.90;;;;;;5073770;28;20461;-80
2023/01/18 12:58:19;;;;;;;0.30;0.30;;;2.30;99.90;;;;;;5072607;28;20437;-80
2023/01/18 13:00:50;;;;;;;0.60;0.30;;;2.30;99.90;;;;;;5073803;28;20430;-80
2023/01/18 13:03:23;;;;;;;0.40;0.40;;;2.30;99.90;;;;;;5073426;28;20461;-80
2023/01/18 13:05:54;;;;;;;0.30;0.30;;;2.30;99.90;;;;;;5073657;28;20472;-80
2023/01/18 13:08:33;;;;;;;0.40;0.30;;;2.20;99.90;;;;;;5073373;28;20429;-80
2023/01/18 13:11:05;;;;;;;0.30;0.20;;;2.20;99.90;;;;;;5073650;28;20764;-79
2023/01/18 13:13:34;;;;;;;0.30;0.20;;;2.20;99.90;;;;;;5073312;28;20793;-79
2023/01/18 13:16:12;;;;;;;0.70;0.40;;;2.10;99.90;;;;;;5073095;28;20481;-79
2023/01/18 13:18:45;;;;;;;0.40;0.30;;;2.10;99.90;;;;;;5073588;28;20407;-79
2023/01/18 13:21:19;;;;;;;0.30;0.30;;;2.10;99.90;;;;;;5073631;28;20436;-79
2023/01/18 13:23:53;;;;;;;0.30;0.30;;;2.10;99.90;;;;;;5073482;28;20464;-79
2023/01/18 13:26:29;;;;;;;0.30;0.30;;;2.10;99.90;;;;;;5073115;28;20898;-79
2023/01/18 13:29:16;;;;;;;0.70;0.37;;;2.10;99.90;;;;;;5073167;28;20920;-79
2023/01/18 13:31:44;;;;;;;0.30;0.30;;;2.10;99.90;;;;;;5073415;28;20433;-79
2023/01/18 13:34:28;;;;;;;0.30;0.30;;;2.10;99.90;;;;;;5073350;28;20949;-85
2023/01/18 13:36:57;;;;;;;0.30;0.20;;;2.00;99.90;;;;;;5073952;28;20442;-84
2023/01/18 13:39:26;;;;;;;0.30;0.20;;;2.00;99.90;;;;;;5073785;28;20450;-85
2023/01/18 13:42:26;;;;;;;0.40;0.40;;;1.90;99.90;;;;;;5073351;28;20441;-85
2023/01/18 13:45:16;;;;;;;0.40;0.40;;;1.90;99.90;;;;;;5071117;28;20482;-85
2023/01/18 13:47:54;;;;;;;0.40;0.40;;;1.80;99.90;;;;;;5073325;28;20533;-84
2023/01/18 13:50:44;;;;;;;0.37;0.33;;;1.80;99.90;;;;;;5074416;28;20441;-85